Thurmond, North Carolina
Current Conditions -  °F | °C
As of 2:35 PM on Friday 28 Nov 2014 (Local Time) from KUKF Reporting Station
Broken Clouds Broken Clouds  
Wind Chill: 37°   Ceiling: 8500
Heat Index: 41°   Visibility: 10mi
Dew Point: 19°   Wind: 6mph
Humidity: 42%   Direction: 220°SW
Pressure: 30.31"   Gusts: NA
Location:  36.37°N, 80.93°W
Report Text: KUKF 281935Z AUTO 22005KT 10SM SCT075 BKN085 BKN120 05/M07 A3031 RMK AO2
Loading
Personal Weather Stations






























Interactive Weather Map New forecast layout! Learn more

10-Day Weather Forecast

Advertisements
Track Severe Weather on mobile